createdAt,value
2019-01-30T02:19:55.777Z,96272.16
2019-01-30T02:22:25.220Z,96267.47
2019-01-30T02:24:55.189Z,96259.48
2019-01-30T02:27:25.876Z,96254.64
2019-01-30T02:29:56.734Z,96238.38
2019-01-30T02:32:25.993Z,96246.05
2019-01-30T02:34:55.396Z,96240.56
2019-01-30T02:37:25.687Z,96232.10
2019-01-30T02:39:53.876Z,96238.19
2019-01-30T02:43:18.693Z,96230.43
2019-01-30T02:45:46.775Z,96230.43
2019-01-30T02:48:17.840Z,96202.20
2019-01-30T02:50:47.889Z,96202.20
2019-01-30T02:53:17.677Z,96216.05
2019-01-30T02:55:47.123Z,96216.05
2019-01-30T02:58:20.847Z,96210.25
2019-01-30T03:00:58.806Z,96189.52
2019-01-30T03:03:24.867Z,96203.59
2019-01-30T03:05:54.688Z,96201.41
2019-01-30T03:08:23.063Z,96201.41
2019-01-30T03:10:52.674Z,96213.28
2019-01-30T03:13:22.780Z,96213.28
2019-01-30T03:15:52.836Z,96205.84
2019-01-30T03:18:22.987Z,96213.92
2019-01-30T03:20:53.804Z,96208.50
2019-01-30T03:23:24.817Z,96199.59
2019-01-30T03:25:54.750Z,96199.69
2019-01-30T03:28:25.958Z,96199.69
2019-01-30T03:30:55.842Z,96190.50
2019-01-30T03:33:25.831Z,96201.47
2019-01-30T03:35:55.884Z,96204.29
2019-01-30T03:38:26.869Z,96182.97
2019-01-30T03:40:56.867Z,96182.97
2019-01-30T03:43:27.905Z,96195.29
2019-01-30T03:45:57.891Z,96198.33
2019-01-30T03:48:27.115Z,96199.88
2019-01-30T03:50:56.043Z,96199.88
2019-01-30T03:53:24.787Z,96188.09
2019-01-30T03:55:53.537Z,96188.09
2019-01-30T03:58:22.799Z,96186.98
2019-01-30T04:00:52.782Z,96178.53
2019-01-30T04:03:22.783Z,96181.44
2019-01-30T04:05:51.831Z,96186.35
2019-01-30T04:08:22.122Z,96186.35
2019-01-30T04:10:52.840Z,96177.83
2019-01-30T04:13:22.875Z,96166.05
2019-01-30T04:15:52.922Z,96166.05
2019-01-30T04:18:22.858Z,96147.89
2019-01-30T04:20:52.818Z,96147.89
2019-01-30T04:23:22.814Z,96155.52
2019-01-30T04:25:52.858Z,96159.73
2019-01-30T04:28:24.673Z,96161.16
2019-01-30T04:30:53.864Z,96161.16
2019-01-30T04:33:22.780Z,96140.55
2019-01-30T04:35:51.874Z,96140.55
2019-01-30T04:38:21.873Z,96135.66
2019-01-30T04:40:49.637Z,96135.66
2019-01-30T04:43:18.429Z,96149.03
2019-01-30T04:45:47.159Z,96129.95
2019-01-30T04:48:17.460Z,96143.29
2019-01-30T04:50:47.077Z,96143.29
2019-01-30T04:53:17.785Z,96146.14
2019-01-30T04:55:47.381Z,96146.14
2019-01-30T04:58:15.992Z,96148.30
2019-01-30T05:00:45.220Z,96150.58
2019-01-30T05:03:14.395Z,96150.58
2019-01-30T05:05:42.374Z,96149.41
2019-01-30T05:08:10.426Z,96154.95
2019-01-30T05:10:39.093Z,96149.41
2019-01-30T05:13:06.956Z,96150.58
2019-01-30T05:15:35.121Z,96150.83
2019-01-30T05:18:03.149Z,96145.31
2019-01-30T05:20:31.351Z,96145.31
2019-01-30T05:22:59.564Z,96134.66
2019-01-30T05:25:27.051Z,96136.31
2019-01-30T05:27:55.238Z,96128.48
2019-01-30T05:30:30.781Z,96120.86
2019-01-30T05:33:01.900Z,96120.86
2019-01-30T05:35:32.860Z,96118.56
2019-01-30T05:38:01.941Z,96106.37
2019-01-30T05:40:31.758Z,96101.94
2019-01-30T05:43:03.075Z,96085.09
2019-01-30T05:45:32.782Z,96111.06
2019-01-30T05:48:03.916Z,96104.41
2019-01-30T05:50:32.877Z,96089.34
2019-01-30T05:53:02.423Z,96089.49
2019-01-30T05:55:31.926Z,96089.49
2019-01-30T05:58:06.846Z,96082.32
2019-01-30T06:00:45.901Z,96084.93
2019-01-30T06:03:16.889Z,96089.14
2019-01-30T06:05:45.777Z,96080.20
2019-01-30T06:08:17.164Z,96093.08
2019-01-30T06:10:47.362Z,96093.08
2019-01-30T06:13:18.398Z,96085.83
2019-01-30T06:15:48.868Z,96068.35
2019-01-30T06:18:18.820Z,96065.53
2019-01-30T06:20:47.865Z,96081.69
2019-01-30T06:23:19.420Z,96082.72
2019-01-30T06:25:49.912Z,96082.72
2019-01-30T06:28:40.790Z,96077.63
2019-01-30T06:31:09.783Z,96077.63
2019-01-30T06:33:40.631Z,96075.34
2019-01-30T06:36:09.756Z,96075.34
2019-01-30T06:38:38.827Z,96093.61
2019-01-30T06:41:07.309Z,96091.63
2019-01-30T06:43:37.648Z,96090.63
2019-01-30T06:48:47.738Z,96083.66
2019-01-30T06:51:17.073Z,96083.66
2019-01-30T06:57:34.662Z,96096.32
2019-01-30T07:00:11.810Z,96102.28
2019-01-30T07:02:40.358Z,96104.69
2019-01-30T07:05:10.429Z,96106.02
2019-01-30T07:07:38.799Z,96109.06
2019-01-30T07:10:12.712Z,96112.52
2019-01-30T07:12:42.747Z,96112.93
2019-01-30T07:15:12.762Z,96113.37
2019-01-30T07:17:41.662Z,96113.05
2019-01-30T07:20:31.320Z,96103.41
2019-01-30T07:23:00.735Z,96102.28
2019-01-30T07:25:29.737Z,96102.28
2019-01-30T07:27:59.346Z,96112.23
2019-01-30T07:30:34.634Z,96112.52
2019-01-30T07:33:02.753Z,96110.39
2019-01-30T07:35:32.910Z,96118.56
2019-01-30T07:38:01.726Z,96114.02
2019-01-30T07:40:29.779Z,96114.02
2019-01-30T07:43:00.801Z,96125.28
2019-01-30T07:45:29.460Z,96140.30
2019-01-30T07:47:59.610Z,96140.30
2019-01-30T07:53:13.869Z,96138.58
2019-01-30T07:58:22.767Z,96132.30
2019-01-30T08:00:51.992Z,96132.30
2019-01-30T08:03:21.979Z,96140.08
2019-01-30T08:05:50.799Z,96140.08
2019-01-30T08:08:21.629Z,96132.45
2019-01-30T08:10:50.604Z,96132.45
2019-01-30T08:13:19.682Z,96140.17
2019-01-30T08:15:50.377Z,96141.04
2019-01-30T08:18:19.387Z,96138.42
2019-01-30T08:20:48.048Z,96148.38
2019-01-30T08:23:18.208Z,96136.55
2019-01-30T08:25:47.052Z,96144.39
2019-01-30T08:28:17.753Z,96151.69
2019-01-30T08:30:47.873Z,96151.69
2019-01-30T08:33:16.611Z,96161.97
2019-01-30T08:35:46.644Z,96166.19
2019-01-30T08:41:17.402Z,96170.50
2019-01-30T08:43:45.013Z,96176.03
2019-01-30T08:46:13.788Z,96182.91
2019-01-30T08:48:42.071Z,96182.91
2019-01-30T08:58:16.021Z,96194.03
2019-01-30T09:00:44.955Z,96198.98
2019-01-30T09:03:15.665Z,96187.81
2019-01-30T09:05:44.119Z,96187.81
2019-01-30T09:08:13.910Z,96180.39
2019-01-30T09:10:42.807Z,96192.32
2019-01-30T09:13:11.397Z,96196.91
2019-01-30T09:15:39.882Z,96196.91
2019-01-30T09:18:10.294Z,96189.33
2019-01-30T09:20:38.358Z,96189.33
2019-01-30T09:23:08.547Z,96193.86
2019-01-30T09:25:36.734Z,96193.24
2019-01-30T09:28:08.419Z,96172.03
2019-01-30T09:30:38.675Z,96172.03
2019-01-30T09:33:10.373Z,96206.07
2019-01-30T09:35:37.819Z,96205.37
2019-01-30T09:38:05.822Z,96217.66
2019-01-30T09:47:56.893Z,96215.34
2019-01-30T09:50:26.346Z,96205.49
2019-01-30T09:52:54.712Z,96205.49
2019-01-30T09:55:23.657Z,96219.34
2019-01-30T09:57:53.009Z,96214.91
2019-01-30T10:00:36.308Z,96211.84
2019-01-30T10:03:05.391Z,96211.84
2019-01-30T10:08:14.927Z,96222.12
2019-01-30T10:10:44.148Z,96223.34
2019-01-30T10:13:13.677Z,96223.34
2019-01-30T10:15:43.904Z,96201.17
2019-01-30T10:18:16.368Z,96226.80
2019-01-30T10:20:47.895Z,96162.09
2019-01-30T10:23:17.785Z,96212.13
2019-01-30T10:25:45.265Z,96212.13
2019-01-30T10:28:16.587Z,96238.44
2019-01-30T10:30:45.761Z,96238.90
2019-01-30T10:33:16.593Z,96233.09
2019-01-30T10:35:45.765Z,96234.25
2019-01-30T10:38:15.768Z,96237.13
2019-01-30T10:40:43.993Z,96237.13
2019-01-30T10:43:12.698Z,96235.11
2019-01-30T10:57:45.691Z,96244.95
2019-01-30T11:00:23.913Z,96251.59
2019-01-30T11:02:53.607Z,96230.00
2019-01-30T11:05:21.867Z,96239.80
2019-01-30T11:07:51.606Z,96237.63
2019-01-30T11:10:21.782Z,96230.27
2019-01-30T11:12:52.173Z,96230.27
2019-01-30T11:15:22.840Z,96250.34
2019-01-30T11:17:51.759Z,96250.34
2019-01-30T11:20:21.937Z,96253.66
2019-01-30T11:22:53.596Z,96249.69
2019-01-30T11:25:24.772Z,96249.91
2019-01-30T11:27:54.688Z,96248.79
2019-01-30T11:30:22.947Z,96248.79
2019-01-30T11:32:55.501Z,96250.34
2019-01-30T11:35:25.241Z,96235.87
2019-01-30T11:37:53.776Z,96235.87
2019-01-30T11:40:22.811Z,96257.04
2019-01-30T11:42:52.372Z,96257.04
2019-01-30T11:45:29.347Z,96242.96
2019-01-30T11:47:57.887Z,96242.96
2019-01-30T11:50:27.742Z,96252.19
2019-01-30T11:52:55.780Z,96252.19
2019-01-30T12:08:10.706Z,96284.76
2019-01-30T12:10:39.021Z,96253.08
2019-01-30T12:13:09.728Z,96287.32
2019-01-30T12:15:38.702Z,96279.89
2019-01-30T12:18:09.038Z,96267.78
2019-01-30T12:20:38.100Z,96270.45
2019-01-30T12:23:07.005Z,96286.88
2019-01-30T12:25:35.057Z,96286.88
2019-01-30T12:28:04.828Z,96289.17
2019-01-30T12:30:32.602Z,96289.66
2019-01-30T12:33:01.676Z,96287.47
2019-01-30T12:35:31.026Z,96298.56
2019-01-30T12:38:00.831Z,96298.56
2019-01-30T12:40:30.761Z,96299.00
2019-01-30T12:43:00.594Z,96306.80
2019-01-30T12:45:33.294Z,96308.02
2019-01-30T12:48:02.752Z,96311.95
2019-01-30T12:50:32.030Z,96311.95
2019-01-30T12:53:01.783Z,96315.52
2019-01-30T12:55:32.312Z,96315.52
2019-01-30T12:58:00.764Z,96320.06
2019-01-30T13:00:30.648Z,96317.72
2019-01-30T13:02:58.811Z,96319.16
2019-01-30T13:05:27.578Z,96328.17
2019-01-30T13:07:57.580Z,96333.95
2019-01-30T13:10:26.352Z,96335.03
2019-01-30T13:12:55.762Z,96331.72
2019-01-30T13:18:40.881Z,96340.19
2019-01-30T13:21:09.762Z,96334.13
2019-01-30T13:23:39.643Z,96350.22
2019-01-30T13:26:08.614Z,96349.86
2019-01-30T13:28:38.721Z,96349.86
2019-01-30T13:31:08.839Z,96357.28
2019-01-30T13:33:40.148Z,96356.70
2019-01-30T13:36:08.714Z,96346.83
2019-01-30T13:38:38.778Z,96346.83
2019-01-30T13:41:07.701Z,96356.85
2019-01-30T13:43:38.772Z,96350.14
2019-01-30T13:46:07.788Z,96364.67
2019-01-30T13:58:50.703Z,96377.77
2019-01-30T14:01:20.726Z,96368.60
2019-01-30T14:18:10.731Z,96419.14
2019-01-30T14:20:39.844Z,96415.75
2019-01-30T14:23:09.022Z,96427.36
2019-01-30T14:25:39.544Z,96443.59
2019-01-30T14:39:04.075Z,96478.36
2019-01-30T14:43:10.779Z,96466.39
2019-01-30T14:45:39.774Z,96482.89
2019-01-30T14:48:10.720Z,96482.89
2019-01-30T14:50:39.721Z,96482.51
2019-01-30T14:53:10.112Z,96477.91
2019-01-30T14:55:40.062Z,96481.56
2019-01-30T14:58:10.896Z,96489.98
2019-01-30T15:03:18.585Z,96502.17
2019-01-30T15:05:47.693Z,96512.97
2019-01-30T15:08:17.031Z,96510.27
2019-01-30T15:10:47.917Z,96521.00
2019-01-30T15:13:18.410Z,96529.70
2019-01-30T15:15:48.093Z,96529.70
2019-01-30T15:18:17.600Z,96513.88
2019-01-30T15:20:49.355Z,96513.88
2019-01-30T15:25:22.509Z,96531.98
2019-01-30T15:27:52.724Z,96531.98
2019-01-30T15:30:57.098Z,96533.13
2019-01-30T15:33:25.922Z,96551.20
2019-01-30T15:36:16.701Z,96551.20
2019-01-30T15:38:46.015Z,96553.55
2019-01-30T15:41:15.362Z,96550.21
2019-01-30T15:43:45.056Z,96550.21
2019-01-30T15:46:16.304Z,96550.21
2019-01-30T15:48:47.843Z,96569.68
2019-01-30T15:51:19.713Z,96566.91
2019-01-30T15:57:08.668Z,96583.56
2019-01-30T15:59:37.520Z,96583.56
2019-01-30T16:02:07.602Z,96589.06
2019-01-30T16:04:38.939Z,96589.06
2019-01-30T16:07:08.314Z,96586.55
2019-01-30T16:09:38.071Z,96586.55
2019-01-30T16:12:08.518Z,96592.89
2019-01-30T16:14:40.869Z,96592.89
2019-01-30T16:17:12.613Z,96598.17
2019-01-30T16:19:42.781Z,96598.17
2019-01-30T16:22:14.324Z,96589.91
2019-01-30T16:24:47.001Z,96605.42
2019-01-30T16:27:17.767Z,96604.69
2019-01-30T16:29:50.587Z,96598.81
2019-01-30T16:32:23.040Z,96598.81
2019-01-30T16:34:50.814Z,96620.67
2019-01-30T16:37:21.104Z,96621.62
2019-01-30T16:39:51.760Z,96639.34
2019-01-30T16:42:21.806Z,96639.02
2019-01-30T16:44:52.651Z,96639.02
2019-01-30T16:47:24.204Z,96649.77
2019-01-30T16:49:52.685Z,96648.95
2019-01-30T16:52:21.710Z,96656.19
2019-01-30T16:54:51.953Z,96649.94
2019-01-30T16:57:22.866Z,96666.94
2019-01-30T16:59:52.637Z,96666.94
2019-01-30T17:02:24.581Z,96677.14
2019-01-30T17:04:56.829Z,96681.84
2019-01-30T17:07:28.721Z,96688.02
2019-01-30T17:10:00.147Z,96688.02
2019-01-30T17:12:31.704Z,96695.00
2019-01-30T17:15:05.296Z,96701.20
2019-01-30T17:17:36.732Z,96696.75
2019-01-30T17:20:12.017Z,96696.75
2019-01-30T17:25:15.915Z,96710.45
2019-01-30T17:31:00.694Z,96721.32
2019-01-30T17:35:19.681Z,96726.98
2019-01-30T17:37:49.810Z,96726.98
2019-01-30T17:41:29.404Z,96736.38
2019-01-30T17:44:00.668Z,96736.38
2019-01-30T17:46:35.815Z,96752.98
2019-01-30T17:49:06.768Z,96748.39
2019-01-30T17:51:37.992Z,96748.39
2019-01-30T17:54:10.333Z,96759.40
2019-01-30T17:56:42.190Z,96759.40
2019-01-30T17:59:13.788Z,96766.16
2019-01-30T18:01:45.787Z,96773.38
2019-01-30T18:04:15.887Z,96773.38
2019-01-30T18:06:47.820Z,96760.33
2019-01-30T18:09:20.056Z,96776.70
2019-01-30T18:11:52.911Z,96776.70
2019-01-30T18:14:21.719Z,96777.16
2019-01-30T18:16:54.630Z,96785.16
2019-01-30T18:19:26.597Z,96788.40
2019-01-30T18:21:59.062Z,96788.40
2019-01-30T18:24:31.942Z,96792.29
2019-01-30T18:27:02.824Z,96794.56
2019-01-30T18:30:19.885Z,96794.88
2019-01-30T18:32:52.953Z,96800.77
2019-01-30T18:35:28.706Z,96800.77
2019-01-30T18:38:06.844Z,96804.95
2019-01-30T18:40:44.948Z,96798.05
2019-01-30T18:43:19.861Z,96802.59
2019-01-30T18:45:54.669Z,96798.81
2019-01-30T18:48:28.687Z,96797.85
2019-01-30T18:51:03.655Z,96795.02
2019-01-30T18:53:35.662Z,96814.06
2019-01-30T18:56:07.724Z,96809.15
2019-01-30T18:58:41.020Z,96809.15
2019-01-30T19:01:13.701Z,96826.08
2019-01-30T19:03:44.716Z,96826.08
2019-01-30T19:06:19.001Z,96831.02
2019-01-30T19:08:54.735Z,96809.02
2019-01-30T19:11:28.634Z,96809.02
2019-01-30T19:14:01.201Z,96825.19
2019-01-30T19:16:33.480Z,96826.08
2019-01-30T19:19:07.684Z,96815.28
2019-01-30T19:21:44.722Z,96813.47
2019-01-30T19:24:19.767Z,96813.47
2019-01-30T19:26:52.945Z,96807.91
2019-01-30T19:29:26.730Z,96795.81
2019-01-30T19:32:01.714Z,96795.81
2019-01-30T19:34:37.481Z,96813.55
2019-01-30T19:37:14.676Z,96811.98
2019-01-30T19:39:48.757Z,96813.95
2019-01-30T19:42:25.670Z,96809.95
2019-01-30T19:49:19.700Z,96806.57
2019-01-30T19:51:54.142Z,96809.77
2019-01-30T19:54:30.638Z,96808.84
2019-01-30T19:57:05.899Z,96808.84
2019-01-30T19:59:41.455Z,96815.20
2019-01-30T20:02:16.938Z,96819.12
2019-01-30T20:04:52.602Z,96809.86
2019-01-30T20:07:26.990Z,96809.86
2019-01-30T20:10:02.740Z,96818.41
2019-01-30T20:12:37.788Z,96804.56
2019-01-30T20:15:16.257Z,96816.62
2019-01-30T20:17:48.338Z,96750.80
2019-01-30T20:20:23.606Z,96825.16
2019-01-30T20:27:10.458Z,96817.38
2019-01-30T20:29:47.510Z,96817.67
2019-01-30T20:32:23.251Z,96817.67
2019-01-30T20:34:57.291Z,96818.18
2019-01-30T20:37:34.357Z,96821.47
2019-01-30T20:40:11.469Z,96806.00
2019-01-30T20:42:43.533Z,96805.48
2019-01-30T20:45:19.030Z,96805.48
2019-01-30T20:47:53.256Z,96823.55
2019-01-30T20:50:29.998Z,96824.25
2019-01-30T20:53:03.875Z,96828.17
2019-01-30T20:55:38.108Z,96827.22
2019-01-30T20:58:10.816Z,96833.19
2019-01-30T21:01:33.580Z,96826.30
2019-01-30T21:04:06.663Z,96828.88
2019-01-30T21:06:39.762Z,96828.88
2019-01-30T21:09:13.684Z,96832.26
2019-01-30T21:11:46.602Z,96835.72
2019-01-30T21:14:19.732Z,96822.83
2019-01-30T21:16:56.774Z,96839.56
2019-01-30T21:19:29.458Z,96839.56
2019-01-30T21:22:05.521Z,96839.47
2019-01-30T21:24:38.453Z,96844.81
2019-01-30T21:27:12.153Z,96826.02
2019-01-30T21:29:45.944Z,96819.52
2019-01-30T21:32:18.213Z,96819.52
2019-01-30T21:34:50.485Z,96835.24
2019-01-30T21:37:22.260Z,96837.43
2019-01-30T21:39:52.362Z,96829.05
2019-01-30T21:42:23.514Z,96830.53
2019-01-30T21:44:55.051Z,96830.53
2019-01-30T21:47:28.628Z,96832.09
2019-01-30T21:50:01.497Z,96825.19
2019-01-30T21:52:33.476Z,96825.19
2019-01-30T21:55:05.750Z,96830.92
2019-01-30T22:00:04.026Z,96819.45
2019-01-30T22:02:36.117Z,96828.74
2019-01-30T22:05:06.635Z,96830.98
2019-01-30T22:07:37.501Z,96830.98
2019-01-30T22:10:10.449Z,96829.25
2019-01-30T22:12:41.445Z,96829.25
2019-01-30T22:15:12.645Z,96830.41
2019-01-30T22:17:44.273Z,96824.53
2019-01-30T22:20:17.549Z,96835.74
2019-01-30T22:22:47.431Z,96831.52
2019-01-30T22:25:20.257Z,96828.98
2019-01-30T22:27:48.084Z,96828.98
2019-01-30T22:30:29.447Z,96816.66
2019-01-30T22:32:58.457Z,96816.66
2019-01-30T22:35:27.816Z,96834.80
2019-01-30T22:37:56.966Z,96820.04
2019-01-30T22:40:27.233Z,96820.04
2019-01-30T22:42:56.180Z,96826.70
2019-01-30T22:45:26.090Z,96826.70
2019-01-30T22:47:54.406Z,96820.13
2019-01-30T22:50:25.430Z,96826.16
2019-01-30T22:52:53.559Z,96826.16
2019-01-30T22:55:23.569Z,96825.91
2019-01-30T22:57:51.855Z,96820.42
2019-01-30T23:01:23.761Z,96795.47
2019-01-30T23:04:52.254Z,96795.47
2019-01-30T23:08:43.102Z,96810.78
2019-01-30T23:12:17.251Z,96801.25
2019-01-30T23:15:03.367Z,96804.41
2019-01-30T23:18:37.568Z,96804.41
2019-01-30T23:21:15.531Z,96802.50
2019-01-30T23:24:21.390Z,96802.50
2019-01-30T23:27:08.475Z,96669.87
2019-01-30T23:30:29.999Z,96803.69
2019-01-30T23:33:55.753Z,96787.14
2019-01-30T23:37:06.973Z,96787.14
2019-01-30T23:40:07.240Z,96794.75
2019-01-30T23:43:33.373Z,96776.23
2019-01-30T23:46:38.471Z,96776.23
2019-01-30T23:50:19.122Z,96786.08
2019-01-30T23:53:35.449Z,96771.41
2019-01-30T23:56:43.815Z,96771.41
